sensor_id;sensor_type;location;lat;lon;timestamp;temperature;humidity
13742;DHT22;8461;52.356;10.704;2023-11-21T00:02:14;7.70;99.90
13742;DHT22;8461;52.356;10.704;2023-11-21T00:04:40;7.70;99.90
13742;DHT22;8461;52.356;10.704;2023-11-21T00:07:05;7.70;99.90
13742;DHT22;8461;52.356;10.704;2023-11-21T00:09:32;7.70;99.90
13742;DHT22;8461;52.356;10.704;2023-11-21T00:11:57;7.60;99.90
13742;DHT22;8461;52.356;10.704;2023-11-21T00:14:24;7.60;99.90
13742;DHT22;8461;52.356;10.704;2023-11-21T00:16:50;7.60;99.90
13742;DHT22;8461;52.356;10.704;2023-11-21T00:19:15;7.60;99.90
13742;DHT22;8461;52.356;10.704;2023-11-21T00:21:42;7.60;99.90
13742;DHT22;8461;52.356;10.704;2023-11-21T00:24:09;7.60;99.90
13742;DHT22;8461;52.356;10.704;2023-11-21T00:26:35;7.60;99.90
13742;DHT22;8461;52.356;10.704;2023-11-21T00:29:03;7.60;99.90
13742;DHT22;8461;52.356;10.704;2023-11-21T00:31:29;7.60;99.90
13742;DHT22;8461;52.356;10.704;2023-11-21T00:33:56;7.60;99.90
13742;DHT22;8461;52.356;10.704;2023-11-21T00:36:21;7.60;99.90
13742;DHT22;8461;52.356;10.704;2023-11-21T00:38:47;7.60;99.90
13742;DHT22;8461;52.356;10.704;2023-11-21T00:41:13;7.60;99.90
13742;DHT22;8461;52.356;10.704;2023-11-21T00:43:39;7.60;99.90
13742;DHT22;8461;52.356;10.704;2023-11-21T00:46:05;7.60;99.90
13742;DHT22;8461;52.356;10.704;2023-11-21T00:48:33;7.50;99.90
13742;DHT22;8461;52.356;10.704;2023-11-21T00:50:58;7.50;99.90
13742;DHT22;8461;52.356;10.704;2023-11-21T00:53:24;7.50;99.90
13742;DHT22;8461;52.356;10.704;2023-11-21T00:55:50;7.50;99.90
13742;DHT22;8461;52.356;10.704;2023-11-21T00:58:17;7.50;99.90
13742;DHT22;8461;52.356;10.704;2023-11-21T01:00:43;7.50;99.90
13742;DHT22;8461;52.356;10.704;2023-11-21T01:03:09;7.50;99.90
13742;DHT22;8461;52.356;10.704;2023-11-21T01:05:35;7.50;99.90
13742;DHT22;8461;52.356;10.704;2023-11-21T01:08:00;7.50;99.90
13742;DHT22;8461;52.356;10.704;2023-11-21T01:10:26;7.50;99.90
13742;DHT22;8461;52.356;10.704;2023-11-21T01:12:51;7.50;99.90
13742;DHT22;8461;52.356;10.704;2023-11-21T01:15:17;7.50;99.90
13742;DHT22;8461;52.356;10.704;2023-11-21T01:17:42;7.50;99.90
13742;DHT22;8461;52.356;10.704;2023-11-21T01:20:08;7.50;99.90
13742;DHT22;8461;52.356;10.704;2023-11-21T01:22:37;7.50;99.90
13742;DHT22;8461;52.356;10.704;2023-11-21T01:25:04;7.50;99.90
13742;DHT22;8461;52.356;10.704;2023-11-21T01:27:30;7.50;99.90
13742;DHT22;8461;52.356;10.704;2023-11-21T01:29:56;7.50;99.90
13742;DHT22;8461;52.356;10.704;2023-11-21T01:32:21;7.50;99.90
13742;DHT22;8461;52.356;10.704;2023-11-21T01:34:50;7.50;99.90
13742;DHT22;8461;52.356;10.704;2023-11-21T01:37:15;7.50;99.90
13742;DHT22;8461;52.356;10.704;2023-11-21T01:39:43;7.50;99.90
13742;DHT22;8461;52.356;10.704;2023-11-21T01:42:10;7.50;99.90
13742;DHT22;8461;52.356;10.704;2023-11-21T01:44:38;7.50;99.90
13742;DHT22;8461;52.356;10.704;2023-11-21T01:47:05;7.50;99.90
13742;DHT22;8461;52.356;10.704;2023-11-21T01:49:32;7.60;99.90
13742;DHT22;8461;52.356;10.704;2023-11-21T01:51:59;7.50;99.90
13742;DHT22;8461;52.356;10.704;2023-11-21T01:54:25;7.60;99.90
13742;DHT22;8461;52.356;10.704;2023-11-21T01:56:51;7.50;99.90
13742;DHT22;8461;52.356;10.704;2023-11-21T01:59:21;7.60;99.90
13742;DHT22;8461;52.356;10.704;2023-11-21T02:01:47;7.50;99.90
13742;DHT22;8461;52.356;10.704;2023-11-21T02:04:13;7.50;99.90
13742;DHT22;8461;52.356;10.704;2023-11-21T02:06:39;7.60;99.90
13742;DHT22;8461;52.356;10.704;2023-11-21T02:09:04;7.50;99.90
13742;DHT22;8461;52.356;10.704;2023-11-21T02:11:30;7.60;99.90
13742;DHT22;8461;52.356;10.704;2023-11-21T02:13:59;7.50;99.90
13742;DHT22;8461;52.356;10.704;2023-11-21T02:16:26;7.60;99.90
13742;DHT22;8461;52.356;10.704;2023-11-21T02:18:52;7.50;99.90
13742;DHT22;8461;52.356;10.704;2023-11-21T02:21:18;7.60;99.90
13742;DHT22;8461;52.356;10.704;2023-11-21T02:23:44;7.60;99.90
13742;DHT22;8461;52.356;10.704;2023-11-21T02:26:12;7.50;99.90
13742;DHT22;8461;52.356;10.704;2023-11-21T02:28:38;7.60;99.90
13742;DHT22;8461;52.356;10.704;2023-11-21T02:31:04;7.50;99.90
13742;DHT22;8461;52.356;10.704;2023-11-21T02:33:30;7.50;99.90
13742;DHT22;8461;52.356;10.704;2023-11-21T02:36:02;7.60;99.90
13742;DHT22;8461;52.356;10.704;2023-11-21T02:38:28;7.60;99.90
13742;DHT22;8461;52.356;10.704;2023-11-21T02:40:53;7.60;99.90
13742;DHT22;8461;52.356;10.704;2023-11-21T02:43:19;7.60;99.90
13742;DHT22;8461;52.356;10.704;2023-11-21T02:45:45;7.70;99.90
13742;DHT22;8461;52.356;10.704;2023-11-21T02:48:10;7.70;99.90
13742;DHT22;8461;52.356;10.704;2023-11-21T02:50:36;7.70;99.90
13742;DHT22;8461;52.356;10.704;2023-11-21T02:53:03;7.70;99.90
13742;DHT22;8461;52.356;10.704;2023-11-21T02:55:28;7.70;99.90
13742;DHT22;8461;52.356;10.704;2023-11-21T02:57:54;7.80;99.90
13742;DHT22;8461;52.356;10.704;2023-11-21T03:00:21;7.80;99.90
13742;DHT22;8461;52.356;10.704;2023-11-21T03:02:49;7.80;99.90
13742;DHT22;8461;52.356;10.704;2023-11-21T03:05:15;7.80;99.90
13742;DHT22;8461;52.356;10.704;2023-11-21T03:07:40;7.70;99.90
13742;DHT22;8461;52.356;10.704;2023-11-21T03:10:07;7.70;99.90
13742;DHT22;8461;52.356;10.704;2023-11-21T03:12:34;7.70;99.90
13742;DHT22;8461;52.356;10.704;2023-11-21T03:15:00;7.70;99.90
13742;DHT22;8461;52.356;10.704;2023-11-21T03:17:27;7.70;99.90
13742;DHT22;8461;52.356;10.704;2023-11-21T03:19:52;7.70;99.90
13742;DHT22;8461;52.356;10.704;2023-11-21T03:22:18;7.80;99.90
13742;DHT22;8461;52.356;10.704;2023-11-21T03:24:44;7.70;99.90
13742;DHT22;8461;52.356;10.704;2023-11-21T03:27:10;7.70;99.90
13742;DHT22;8461;52.356;10.704;2023-11-21T03:29:35;7.70;99.90
13742;DHT22;8461;52.356;10.704;2023-11-21T03:32:01;7.70;99.90
13742;DHT22;8461;52.356;10.704;2023-11-21T03:34:27;7.60;99.90
13742;DHT22;8461;52.356;10.704;2023-11-21T03:36:53;7.70;99.90
13742;DHT22;8461;52.356;10.704;2023-11-21T03:39:20;7.70;99.90
13742;DHT22;8461;52.356;10.704;2023-11-21T03:41:46;7.70;99.90
13742;DHT22;8461;52.356;10.704;2023-11-21T03:44:12;7.70;99.90
13742;DHT22;8461;52.356;10.704;2023-11-21T03:46:38;7.70;99.90
13742;DHT22;8461;52.356;10.704;2023-11-21T03:49:03;7.70;99.90
13742;DHT22;8461;52.356;10.704;2023-11-21T03:51:29;7.70;99.90
13742;DHT22;8461;52.356;10.704;2023-11-21T03:53:54;7.70;99.90
13742;DHT22;8461;52.356;10.704;2023-11-21T03:56:20;7.70;99.90
13742;DHT22;8461;52.356;10.704;2023-11-21T03:58:48;7.70;99.90
13742;DHT22;8461;52.356;10.704;2023-11-21T04:01:24;7.70;99.90
13742;DHT22;8461;52.356;10.704;2023-11-21T04:03:50;7.70;99.90
13742;DHT22;8461;52.356;10.704;2023-11-21T04:06:17;7.70;99.90
13742;DHT22;8461;52.356;10.704;2023-11-21T04:08:44;7.80;99.90
13742;DHT22;8461;52.356;10.704;2023-11-21T04:11:10;7.80;99.90
13742;DHT22;8461;52.356;10.704;2023-11-21T04:13:38;7.80;99.90
13742;DHT22;8461;52.356;10.704;2023-11-21T04:16:05;7.70;99.90
13742;DHT22;8461;52.356;10.704;2023-11-21T04:18:30;7.70;99.90
13742;DHT22;8461;52.356;10.704;2023-11-21T04:20:56;7.80;99.90
13742;DHT22;8461;52.356;10.704;2023-11-21T04:23:21;7.80;99.90
13742;DHT22;8461;52.356;10.704;2023-11-21T04:25:47;7.80;99.90
13742;DHT22;8461;52.356;10.704;2023-11-21T04:28:12;7.80;99.90
13742;DHT22;8461;52.356;10.704;2023-11-21T04:30:38;7.80;99.90
13742;DHT22;8461;52.356;10.704;2023-11-21T04:33:04;7.80;99.90
13742;DHT22;8461;52.356;10.704;2023-11-21T04:35:30;7.70;99.90
13742;DHT22;8461;52.356;10.704;2023-11-21T04:37:55;7.80;99.90
13742;DHT22;8461;52.356;10.704;2023-11-21T04:40:22;7.90;99.90
13742;DHT22;8461;52.356;10.704;2023-11-21T04:42:48;7.90;99.90
13742;DHT22;8461;52.356;10.704;2023-11-21T04:45:14;7.90;99.90
13742;DHT22;8461;52.356;10.704;2023-11-21T04:47:39;7.80;99.90
13742;DHT22;8461;52.356;10.704;2023-11-21T04:50:05;7.80;99.90
13742;DHT22;8461;52.356;10.704;2023-11-21T04:52:31;7.70;99.90
13742;DHT22;8461;52.356;10.704;2023-11-21T04:54:58;7.70;99.90
13742;DHT22;8461;52.356;10.704;2023-11-21T04:57:26;7.70;99.90
13742;DHT22;8461;52.356;10.704;2023-11-21T04:59:53;7.70;99.90
13742;DHT22;8461;52.356;10.704;2023-11-21T05:02:19;7.60;99.90
13742;DHT22;8461;52.356;10.704;2023-11-21T05:04:46;7.60;99.90
13742;DHT22;8461;52.356;10.704;2023-11-21T05:07:12;7.60;99.90
13742;DHT22;8461;52.356;10.704;2023-11-21T05:09:44;7.70;99.90
13742;DHT22;8461;52.356;10.704;2023-11-21T05:12:11;7.70;99.90
13742;DHT22;8461;52.356;10.704;2023-11-21T05:14:37;7.70;99.90
13742;DHT22;8461;52.356;10.704;2023-11-21T05:17:03;7.70;99.90
13742;DHT22;8461;52.356;10.704;2023-11-21T05:19:29;7.70;99.90
13742;DHT22;8461;52.356;10.704;2023-11-21T05:21:55;7.70;99.90
13742;DHT22;8461;52.356;10.704;2023-11-21T05:24:21;7.70;99.90
13742;DHT22;8461;52.356;10.704;2023-11-21T05:26:46;7.70;99.90
13742;DHT22;8461;52.356;10.704;2023-11-21T05:29:12;7.70;99.90
13742;DHT22;8461;52.356;10.704;2023-11-21T05:31:37;7.60;99.90
13742;DHT22;8461;52.356;10.704;2023-11-21T05:34:03;7.60;99.90
13742;DHT22;8461;52.356;10.704;2023-11-21T05:36:30;7.60;99.90
13742;DHT22;8461;52.356;10.704;2023-11-21T05:38:56;7.60;99.90
13742;DHT22;8461;52.356;10.704;2023-11-21T05:41:21;7.50;99.90
13742;DHT22;8461;52.356;10.704;2023-11-21T05:43:47;7.50;99.90
13742;DHT22;8461;52.356;10.704;2023-11-21T05:46:12;7.40;99.90
13742;DHT22;8461;52.356;10.704;2023-11-21T05:48:38;7.40;99.90
13742;DHT22;8461;52.356;10.704;2023-11-21T05:51:07;7.40;99.90
13742;DHT22;8461;52.356;10.704;2023-11-21T05:53:33;7.30;99.90
13742;DHT22;8461;52.356;10.704;2023-11-21T05:55:59;7.20;99.90
13742;DHT22;8461;52.356;10.704;2023-11-21T05:58:25;7.30;99.90
13742;DHT22;8461;52.356;10.704;2023-11-21T06:00:50;7.20;99.90
13742;DHT22;8461;52.356;10.704;2023-11-21T06:03:16;7.20;99.90
13742;DHT22;8461;52.356;10.704;2023-11-21T06:05:42;7.20;99.90
13742;DHT22;8461;52.356;10.704;2023-11-21T06:08:09;7.20;99.90
13742;DHT22;8461;52.356;10.704;2023-11-21T06:10:34;7.10;99.90
13742;DHT22;8461;52.356;10.704;2023-11-21T06:13:00;7.10;99.90
13742;DHT22;8461;52.356;10.704;2023-11-21T06:15:25;7.00;99.90
13742;DHT22;8461;52.356;10.704;2023-11-21T06:17:51;6.90;99.90
13742;DHT22;8461;52.356;10.704;2023-11-21T06:20:18;6.90;99.90
13742;DHT22;8461;52.356;10.704;2023-11-21T06:22:46;6.90;99.90
13742;DHT22;8461;52.356;10.704;2023-11-21T06:25:13;6.80;99.90
13742;DHT22;8461;52.356;10.704;2023-11-21T06:27:40;6.70;99.90
13742;DHT22;8461;52.356;10.704;2023-11-21T06:30:06;6.70;99.90
13742;DHT22;8461;52.356;10.704;2023-11-21T06:32:34;6.70;99.90
13742;DHT22;8461;52.356;10.704;2023-11-21T06:35:00;6.70;99.90
13742;DHT22;8461;52.356;10.704;2023-11-21T06:37:27;6.60;99.90
13742;DHT22;8461;52.356;10.704;2023-11-21T06:39:52;6.60;99.90
13742;DHT22;8461;52.356;10.704;2023-11-21T06:42:18;6.50;99.90
13742;DHT22;8461;52.356;10.704;2023-11-21T06:44:48;6.50;99.90
13742;DHT22;8461;52.356;10.704;2023-11-21T06:47:22;6.50;99.90
13742;DHT22;8461;52.356;10.704;2023-11-21T06:49:50;6.50;99.90
13742;DHT22;8461;52.356;10.704;2023-11-21T06:52:16;6.50;99.90
13742;DHT22;8461;52.356;10.704;2023-11-21T06:54:42;6.50;99.90
13742;DHT22;8461;52.356;10.704;2023-11-21T06:57:08;6.50;99.90
13742;DHT22;8461;52.356;10.704;2023-11-21T06:59:34;6.50;99.90
13742;DHT22;8461;52.356;10.704;2023-11-21T07:01:59;6.50;99.90
13742;DHT22;8461;52.356;10.704;2023-11-21T07:04:25;6.50;99.90
13742;DHT22;8461;52.356;10.704;2023-11-21T07:06:54;6.50;99.90
13742;DHT22;8461;52.356;10.704;2023-11-21T07:09:20;6.50;99.90
13742;DHT22;8461;52.356;10.704;2023-11-21T07:11:48;6.50;99.90
13742;DHT22;8461;52.356;10.704;2023-11-21T07:14:14;6.60;99.90
13742;DHT22;8461;52.356;10.704;2023-11-21T07:16:39;6.50;99.90
13742;DHT22;8461;52.356;10.704;2023-11-21T07:19:05;6.50;99.90
13742;DHT22;8461;52.356;10.704;2023-11-21T07:21:35;6.50;99.90
13742;DHT22;8461;52.356;10.704;2023-11-21T07:24:02;6.50;99.90
13742;DHT22;8461;52.356;10.704;2023-11-21T07:26:27;6.50;99.90
13742;DHT22;8461;52.356;10.704;2023-11-21T07:28:55;6.40;99.90
13742;DHT22;8461;52.356;10.704;2023-11-21T07:31:21;6.50;99.90
13742;DHT22;8461;52.356;10.704;2023-11-21T07:33:47;6.50;99.90
13742;DHT22;8461;52.356;10.704;2023-11-21T07:36:14;6.50;99.90
13742;DHT22;8461;52.356;10.704;2023-11-21T07:38:40;6.40;99.90
13742;DHT22;8461;52.356;10.704;2023-11-21T07:41:05;6.40;99.90
13742;DHT22;8461;52.356;10.704;2023-11-21T07:43:36;6.40;99.90
13742;DHT22;8461;52.356;10.704;2023-11-21T07:46:02;6.30;99.90
13742;DHT22;8461;52.356;10.704;2023-11-21T07:48:29;6.20;99.90
13742;DHT22;8461;52.356;10.704;2023-11-21T07:50:55;6.30;99.90
13742;DHT22;8461;52.356;10.704;2023-11-21T07:53:21;6.30;99.90
13742;DHT22;8461;52.356;10.704;2023-11-21T07:55:47;6.30;99.90
13742;DHT22;8461;52.356;10.704;2023-11-21T07:58:12;6.40;99.90
13742;DHT22;8461;52.356;10.704;2023-11-21T08:00:38;6.40;99.90
13742;DHT22;8461;52.356;10.704;2023-11-21T08:03:05;6.40;99.90
13742;DHT22;8461;52.356;10.704;2023-11-21T08:05:31;6.40;99.90
13742;DHT22;8461;52.356;10.704;2023-11-21T08:07:57;6.40;99.90
13742;DHT22;8461;52.356;10.704;2023-11-21T08:10:22;6.40;99.90
13742;DHT22;8461;52.356;10.704;2023-11-21T08:12:48;6.40;99.90
13742;DHT22;8461;52.356;10.704;2023-11-21T08:15:15;6.40;99.90
13742;DHT22;8461;52.356;10.704;2023-11-21T08:17:41;6.40;99.90
13742;DHT22;8461;52.356;10.704;2023-11-21T08:20:07;6.50;99.90
13742;DHT22;8461;52.356;10.704;2023-11-21T08:22:33;6.50;99.90
13742;DHT22;8461;52.356;10.704;2023-11-21T08:24:59;6.50;99.90
13742;DHT22;8461;52.356;10.704;2023-11-21T08:27:25;6.50;99.90
13742;DHT22;8461;52.356;10.704;2023-11-21T08:29:51;6.50;99.90
13742;DHT22;8461;52.356;10.704;2023-11-21T08:32:18;6.50;99.90
13742;DHT22;8461;52.356;10.704;2023-11-21T08:34:43;6.50;99.90
13742;DHT22;8461;52.356;10.704;2023-11-21T08:37:10;6.60;99.90
13742;DHT22;8461;52.356;10.704;2023-11-21T08:39:37;6.60;99.90
13742;DHT22;8461;52.356;10.704;2023-11-21T08:42:03;6.60;99.90
13742;DHT22;8461;52.356;10.704;2023-11-21T08:44:29;6.60;99.90
13742;DHT22;8461;52.356;10.704;2023-11-21T08:46:55;6.60;99.90
13742;DHT22;8461;52.356;10.704;2023-11-21T08:49:21;6.60;99.90
13742;DHT22;8461;52.356;10.704;2023-11-21T08:51:46;6.60;99.90
13742;DHT22;8461;52.356;10.704;2023-11-21T08:54:12;6.70;99.90
13742;DHT22;8461;52.356;10.704;2023-11-21T08:56:37;6.70;99.90
13742;DHT22;8461;52.356;10.704;2023-11-21T08:59:03;6.80;99.90
13742;DHT22;8461;52.356;10.704;2023-11-21T09:01:29;6.80;99.90
13742;DHT22;8461;52.356;10.704;2023-11-21T09:03:57;6.80;99.90
13742;DHT22;8461;52.356;10.704;2023-11-21T09:06:23;6.80;99.90
13742;DHT22;8461;52.356;10.704;2023-11-21T09:08:48;6.80;99.90
13742;DHT22;8461;52.356;10.704;2023-11-21T09:11:14;6.70;99.90
13742;DHT22;8461;52.356;10.704;2023-11-21T09:13:39;6.80;99.90
13742;DHT22;8461;52.356;10.704;2023-11-21T09:16:05;6.80;99.90
13742;DHT22;8461;52.356;10.704;2023-11-21T09:18:31;6.80;99.90
13742;DHT22;8461;52.356;10.704;2023-11-21T09:20:57;6.90;99.90
13742;DHT22;8461;52.356;10.704;2023-11-21T09:23:23;6.90;99.90
13742;DHT22;8461;52.356;10.704;2023-11-21T09:25:49;6.90;99.90
13742;DHT22;8461;52.356;10.704;2023-11-21T09:28:15;6.80;99.90
13742;DHT22;8461;52.356;10.704;2023-11-21T09:30:43;6.80;99.90
13742;DHT22;8461;52.356;10.704;2023-11-21T09:33:09;6.70;99.90
13742;DHT22;8461;52.356;10.704;2023-11-21T09:35:37;6.70;99.90
13742;DHT22;8461;52.356;10.704;2023-11-21T09:38:03;6.60;99.90
13742;DHT22;8461;52.356;10.704;2023-11-21T09:40:35;6.60;99.90
13742;DHT22;8461;52.356;10.704;2023-11-21T09:43:02;6.50;99.90
13742;DHT22;8461;52.356;10.704;2023-11-21T09:45:35;6.60;99.90
13742;DHT22;8461;52.356;10.704;2023-11-21T09:48:01;6.70;99.90
13742;DHT22;8461;52.356;10.704;2023-11-21T09:50:27;6.70;99.90
13742;DHT22;8461;52.356;10.704;2023-11-21T09:53:22;6.80;99.90
13742;DHT22;8461;52.356;10.704;2023-11-21T09:55:51;6.80;99.90
13742;DHT22;8461;52.356;10.704;2023-11-21T09:58:18;6.90;99.90
13742;DHT22;8461;52.356;10.704;2023-11-21T10:00:49;6.90;99.90
13742;DHT22;8461;52.356;10.704;2023-11-21T10:03:15;6.90;99.90
13742;DHT22;8461;52.356;10.704;2023-11-21T10:05:45;6.90;99.90
13742;DHT22;8461;52.356;10.704;2023-11-21T10:08:13;6.90;99.90
13742;DHT22;8461;52.356;10.704;2023-11-21T10:10:46;6.90;99.90
13742;DHT22;8461;52.356;10.704;2023-11-21T10:13:14;6.90;99.90
13742;DHT22;8461;52.356;10.704;2023-11-21T10:15:43;6.90;99.90
13742;DHT22;8461;52.356;10.704;2023-11-21T10:18:14;6.90;99.90
13742;DHT22;8461;52.356;10.704;2023-11-21T10:20:40;7.00;99.90
13742;DHT22;8461;52.356;10.704;2023-11-21T10:23:07;7.10;99.90
13742;DHT22;8461;52.356;10.704;2023-11-21T10:25:36;7.10;99.90
13742;DHT22;8461;52.356;10.704;2023-11-21T10:28:03;7.10;99.90
13742;DHT22;8461;52.356;10.704;2023-11-21T10:30:36;7.00;99.90
13742;DHT22;8461;52.356;10.704;2023-11-21T10:33:06;7.00;99.90
13742;DHT22;8461;52.356;10.704;2023-11-21T10:35:43;7.10;99.90
13742;DHT22;8461;52.356;10.704;2023-11-21T10:38:15;7.10;99.90
13742;DHT22;8461;52.356;10.704;2023-11-21T10:40:41;7.20;99.90
13742;DHT22;8461;52.356;10.704;2023-11-21T10:43:08;7.20;99.90
13742;DHT22;8461;52.356;10.704;2023-11-21T10:45:35;7.20;99.90
13742;DHT22;8461;52.356;10.704;2023-11-21T10:48:05;7.20;99.90
13742;DHT22;8461;52.356;10.704;2023-11-21T10:50:33;7.20;99.90
13742;DHT22;8461;52.356;10.704;2023-11-21T10:53:01;7.20;99.90
13742;DHT22;8461;52.356;10.704;2023-11-21T10:55:28;7.30;99.90
13742;DHT22;8461;52.356;10.704;2023-11-21T10:57:54;7.30;99.90
13742;DHT22;8461;52.356;10.704;2023-11-21T11:00:22;7.30;99.90
13742;DHT22;8461;52.356;10.704;2023-11-21T11:02:51;7.30;99.90
13742;DHT22;8461;52.356;10.704;2023-11-21T11:05:20;7.20;99.90
13742;DHT22;8461;52.356;10.704;2023-11-21T11:10:26;7.30;99.90
13742;DHT22;8461;52.356;10.704;2023-11-21T11:12:53;7.20;99.90
13742;DHT22;8461;52.356;10.704;2023-11-21T11:15:19;7.20;99.90
13742;DHT22;8461;52.356;10.704;2023-11-21T11:17:46;7.20;99.90
13742;DHT22;8461;52.356;10.704;2023-11-21T11:20:13;7.20;99.90
13742;DHT22;8461;52.356;10.704;2023-11-21T11:23:13;7.10;99.90
13742;DHT22;8461;52.356;10.704;2023-11-21T11:36:37;7.30;99.90
13742;DHT22;8461;52.356;10.704;2023-11-21T11:39:26;7.30;99.90
13742;DHT22;8461;52.356;10.704;2023-11-21T11:41:52;7.40;99.90
13742;DHT22;8461;52.356;10.704;2023-11-21T11:47:22;7.30;99.90
13742;DHT22;8461;52.356;10.704;2023-11-21T11:50:15;7.30;99.90
13742;DHT22;8461;52.356;10.704;2023-11-21T11:52:44;7.40;99.90
13742;DHT22;8461;52.356;10.704;2023-11-21T11:55:15;7.20;99.90
13742;DHT22;8461;52.356;10.704;2023-11-21T11:57:47;7.10;99.90
13742;DHT22;8461;52.356;10.704;2023-11-21T12:00:15;7.00;99.90
13742;DHT22;8461;52.356;10.704;2023-11-21T12:02:44;7.10;99.90
13742;DHT22;8461;52.356;10.704;2023-11-21T12:05:11;7.20;99.90
13742;DHT22;8461;52.356;10.704;2023-11-21T12:07:57;7.40;99.90
13742;DHT22;8461;52.356;10.704;2023-11-21T12:10:25;7.40;99.90
13742;DHT22;8461;52.356;10.704;2023-11-21T12:12:53;7.50;99.90
13742;DHT22;8461;52.356;10.704;2023-11-21T12:15:19;7.60;99.90
13742;DHT22;8461;52.356;10.704;2023-11-21T12:17:45;7.70;99.90
13742;DHT22;8461;52.356;10.704;2023-11-21T12:20:12;7.70;99.90
13742;DHT22;8461;52.356;10.704;2023-11-21T12:22:46;7.60;99.90
13742;DHT22;8461;52.356;10.704;2023-11-21T12:25:16;7.50;99.90
13742;DHT22;8461;52.356;10.704;2023-11-21T12:27:48;7.40;99.90
13742;DHT22;8461;52.356;10.704;2023-11-21T12:30:16;7.40;99.90
13742;DHT22;8461;52.356;10.704;2023-11-21T12:32:49;7.30;99.90
13742;DHT22;8461;52.356;10.704;2023-11-21T12:35:17;7.40;99.90
13742;DHT22;8461;52.356;10.704;2023-11-21T12:37:45;7.30;99.90
13742;DHT22;8461;52.356;10.704;2023-11-21T12:40:12;7.40;99.90
13742;DHT22;8461;52.356;10.704;2023-11-21T12:42:41;7.40;99.90
13742;DHT22;8461;52.356;10.704;2023-11-21T12:47:35;7.30;99.90
13742;DHT22;8461;52.356;10.704;2023-11-21T12:50:02;7.30;99.90
13742;DHT22;8461;52.356;10.704;2023-11-21T12:52:28;7.20;99.90
13742;DHT22;8461;52.356;10.704;2023-11-21T12:54:54;7.20;99.90
13742;DHT22;8461;52.356;10.704;2023-11-21T12:57:25;7.10;99.90
13742;DHT22;8461;52.356;10.704;2023-11-21T12:59:57;7.10;99.90
13742;DHT22;8461;52.356;10.704;2023-11-21T13:02:26;7.10;99.90
13742;DHT22;8461;52.356;10.704;2023-11-21T13:04:52;7.00;99.90
13742;DHT22;8461;52.356;10.704;2023-11-21T13:07:19;7.00;99.90
13742;DHT22;8461;52.356;10.704;2023-11-21T13:09:45;7.00;99.90
13742;DHT22;8461;52.356;10.704;2023-11-21T13:12:11;7.00;99.90
13742;DHT22;8461;52.356;10.704;2023-11-21T13:14:40;7.00;99.90
13742;DHT22;8461;52.356;10.704;2023-11-21T13:17:05;7.00;99.90
13742;DHT22;8461;52.356;10.704;2023-11-21T13:19:31;6.90;99.90
13742;DHT22;8461;52.356;10.704;2023-11-21T13:21:56;6.90;99.90
13742;DHT22;8461;52.356;10.704;2023-11-21T13:24:24;6.90;99.90
13742;DHT22;8461;52.356;10.704;2023-11-21T13:26:50;7.00;99.90
13742;DHT22;8461;52.356;10.704;2023-11-21T13:29:16;7.00;99.90
13742;DHT22;8461;52.356;10.704;2023-11-21T13:31:41;7.00;99.90
13742;DHT22;8461;52.356;10.704;2023-11-21T13:34:07;6.90;99.90
13742;DHT22;8461;52.356;10.704;2023-11-21T13:36:34;6.90;99.90
13742;DHT22;8461;52.356;10.704;2023-11-21T13:39:00;6.80;99.90
13742;DHT22;8461;52.356;10.704;2023-11-21T13:41:32;6.70;99.90
13742;DHT22;8461;52.356;10.704;2023-11-21T13:43:59;6.80;99.90
13742;DHT22;8461;52.356;10.704;2023-11-21T13:46:39;6.90;99.90
13742;DHT22;8461;52.356;10.704;2023-11-21T13:49:05;6.90;99.90
13742;DHT22;8461;52.356;10.704;2023-11-21T13:51:35;6.80;99.90
13742;DHT22;8461;52.356;10.704;2023-11-21T13:54:11;6.80;99.90
13742;DHT22;8461;52.356;10.704;2023-11-21T13:56:36;6.80;99.90
13742;DHT22;8461;52.356;10.704;2023-11-21T13:59:02;6.80;99.90
13742;DHT22;8461;52.356;10.704;2023-11-21T14:01:42;6.80;99.90
13742;DHT22;8461;52.356;10.704;2023-11-21T14:04:21;6.60;99.90
13742;DHT22;8461;52.356;10.704;2023-11-21T14:07:00;6.50;99.90
13742;DHT22;8461;52.356;10.704;2023-11-21T14:09:36;6.50;99.90
13742;DHT22;8461;52.356;10.704;2023-11-21T14:12:09;6.40;99.90
13742;DHT22;8461;52.356;10.704;2023-11-21T14:14:35;6.40;99.90
13742;DHT22;8461;52.356;10.704;2023-11-21T14:17:01;6.30;99.90
13742;DHT22;8461;52.356;10.704;2023-11-21T14:19:32;6.30;99.90
13742;DHT22;8461;52.356;10.704;2023-11-21T14:21:58;6.20;99.90
13742;DHT22;8461;52.356;10.704;2023-11-21T14:24:23;6.20;99.90
13742;DHT22;8461;52.356;10.704;2023-11-21T14:26:49;6.20;99.90
13742;DHT22;8461;52.356;10.704;2023-11-21T14:29:18;6.20;99.90
13742;DHT22;8461;52.356;10.704;2023-11-21T14:31:48;6.30;99.90
13742;DHT22;8461;52.356;10.704;2023-11-21T14:34:15;6.30;99.90
13742;DHT22;8461;52.356;10.704;2023-11-21T14:36:41;6.30;99.90
13742;DHT22;8461;52.356;10.704;2023-11-21T14:39:06;6.20;99.90
13742;DHT22;8461;52.356;10.704;2023-11-21T14:41:46;6.20;99.90
13742;DHT22;8461;52.356;10.704;2023-11-21T14:44:11;6.20;99.90
13742;DHT22;8461;52.356;10.704;2023-11-21T14:46:38;6.10;99.90
13742;DHT22;8461;52.356;10.704;2023-11-21T14:49:05;6.00;99.90
13742;DHT22;8461;52.356;10.704;2023-11-21T14:52:00;6.00;99.90
13742;DHT22;8461;52.356;10.704;2023-11-21T14:54:27;6.10;99.90
13742;DHT22;8461;52.356;10.704;2023-11-21T14:57:12;6.00;99.90
13742;DHT22;8461;52.356;10.704;2023-11-21T14:59:45;6.00;99.90
13742;DHT22;8461;52.356;10.704;2023-11-21T15:02:23;6.00;99.90
13742;DHT22;8461;52.356;10.704;2023-11-21T15:05:09;5.90;99.90
13742;DHT22;8461;52.356;10.704;2023-11-21T15:07:40;5.80;99.90
13742;DHT22;8461;52.356;10.704;2023-11-21T15:10:06;5.80;99.90
13742;DHT22;8461;52.356;10.704;2023-11-21T15:12:36;5.80;99.90
13742;DHT22;8461;52.356;10.704;2023-11-21T15:15:04;5.70;99.90
13742;DHT22;8461;52.356;10.704;2023-11-21T15:17:32;5.70;99.90
13742;DHT22;8461;52.356;10.704;2023-11-21T15:19:58;5.70;99.90
13742;DHT22;8461;52.356;10.704;2023-11-21T15:22:25;5.60;99.90
13742;DHT22;8461;52.356;10.704;2023-11-21T15:24:52;5.60;99.90
13742;DHT22;8461;52.356;10.704;2023-11-21T15:27:19;5.70;99.90
13742;DHT22;8461;52.356;10.704;2023-11-21T15:29:45;5.70;99.90
13742;DHT22;8461;52.356;10.704;2023-11-21T15:32:11;5.70;99.90
13742;DHT22;8461;52.356;10.704;2023-11-21T15:34:38;5.60;99.90
13742;DHT22;8461;52.356;10.704;2023-11-21T15:37:05;5.60;99.90
13742;DHT22;8461;52.356;10.704;2023-11-21T15:39:33;5.60;99.90
13742;DHT22;8461;52.356;10.704;2023-11-21T15:41:59;5.80;99.90
13742;DHT22;8461;52.356;10.704;2023-11-21T15:44:27;6.00;99.90
13742;DHT22;8461;52.356;10.704;2023-11-21T15:46:54;5.90;99.90
13742;DHT22;8461;52.356;10.704;2023-11-21T15:49:19;5.90;99.90
13742;DHT22;8461;52.356;10.704;2023-11-21T15:51:48;6.00;99.90
13742;DHT22;8461;52.356;10.704;2023-11-21T15:54:24;6.10;99.90
13742;DHT22;8461;52.356;10.704;2023-11-21T15:56:55;6.00;99.90
13742;DHT22;8461;52.356;10.704;2023-11-21T15:59:23;5.90;99.90
13742;DHT22;8461;52.356;10.704;2023-11-21T16:01:52;5.90;99.90
13742;DHT22;8461;52.356;10.704;2023-11-21T16:04:17;5.90;99.90
13742;DHT22;8461;52.356;10.704;2023-11-21T16:06:43;5.90;99.90